KSEZKBVU

Guest
Details From KSEZ - Sedona
To KBVU - BOULDER CITY MUNI
Flight Number -
Tags generated
Created
Modified
Stats Distance 164 nm / 304 km
Max Altitude 12,500 ft / 3,810 m
Waypoints 3
Social Downloads 0
Likes 0
Share VATSIM

Download

Looking for another format? Having issues loading an existing format? Contact us
Advertisement - Login to hide

Notes

Basic altitude profile: - Ascent Rate: 1000ft/min - Ascent Speed: 140kts - Cruise Altitude: 12000ft - Cruise Speed: 180kts - Descent Rate: 1500ft/min - Descent Speed: 160kts Options: - Use NATs: yes - Use PACOTS: yes - Use low airways: yes - Use high airways: yes

Route

KSEZ ILUKY KBVU

ID Type Via Altitude Latitude Longitude Leg Dist Tot Dist Heading (true) Name
O KSEZ APT - 0 ft / 0 m 34.84861˚ -111.78848˚ - 0 nm - Sedona
ILUKY FIX - 12,500 ft / 3,810 m 35.50039˚ -113.68079˚ 100 nm 100 nm 293° / 292° -
O KBVU APT - 0 ft / 0 m 35.94837˚ -114.85958˚ 63 nm 164 nm 295° / 295° BOULDER CITY MUNI

Altitude Profile

Advertisement - Login to hide

Weather


0- 5 10 15 20 25 30 35+ Temperature / ° C

Clouds and Precipitation
Forecast for 2017-12-17 00:00 UTC. Updated 2 hours ago

Ground ~20,000 ft ~40,000 ft Winds

KSEZ

Details ICAO KSEZ (SDX)
Name Sedona
Region United States
Timezone America/Phoenix (UTC-7.0)
Stats Elevation 4,827 ft / 1,471 m (AMSL)
Location 34.848607° -111.788482°
Runways 1
Magnetic Variation 10.458° E

METAR

KSEZ 162115Z AUTO 18008KT 10SM CLR 13/M12 A2979 RMK AO2

Decode

TAF

TAF KSEZ 161732Z 1618/1718 17008KT P6SM BKN140 BKN250 FM170300 05008KT P6SM BKN150 BKN250

Decode

Departure Runways

ID Width Length Bearing (true) Bearing (mag) Surface Threshold Offset Overrun Length
03 100 ft / 30 m 5,130 ft / 1,564 m 45.63° 35.17° Asphalt 0 ft / 0 m 0 ft / 0 m
21 100 ft / 30 m 5,130 ft / 1,564 m 225.64° 215.18° Asphalt 0 ft / 0 m 0 ft / 0 m

KBVU

Details ICAO KBVU (BLD)
Name BOULDER CITY MUNI
Region United States
Timezone America/Los_Angeles (UTC-8.0)
Stats Elevation 2,201 ft / 671 m (AMSL)
Location 35.948366° -114.859580°
Runways 3
Magnetic Variation 11.552° E

METAR

KBVU 162115Z AUTO 00000KT 10SM 14/M09 A2975 RMK AO2

Decode

TAF

Not found

Destination Runways

ID Width Length Bearing (true) Bearing (mag) Surface Threshold Offset Overrun Length
09L 60 ft / 18 m 2,197 ft / 670 m 103.75° 92.20° Asphalt 0 ft / 0 m 0 ft / 0 m
09R 75 ft / 23 m 4,792 ft / 1,461 m 103.76° 92.21° Asphalt 0 ft / 0 m 0 ft / 0 m
15 75 ft / 23 m 3,859 ft / 1,176 m 164.77° 153.22° Asphalt 0 ft / 0 m 0 ft / 0 m
27L 75 ft / 23 m 4,792 ft / 1,461 m 283.77° 272.22° Asphalt 0 ft / 0 m 0 ft / 0 m
27R 60 ft / 18 m 2,197 ft / 670 m 283.75° 272.20° Asphalt 0 ft / 0 m 0 ft / 0 m
33 75 ft / 23 m 3,859 ft / 1,176 m 344.77° 333.22° Asphalt 0 ft / 0 m 0 ft / 0 m